Time,TemperatureF,DewpointF,PressureIn,WindDirection,WindDirectionDegrees,WindSpeedMPH,WindSpeedGustMPH,Humidity,HourlyPrecipIn,Conditions,Clouds,dailyrainin,SolarRadiationWatts/m^2,SoftwareType,DateUTC
2013-08-19 00:00:00,53.1,50.8,30.23,East,80,0.0,1.0,92,0.00,,---,0.00,0.00,VWS V14.00,2013-08-19 04:00:00,
2013-08-19 00:01:00,56.3,53.4,30.06,NE,46,0.0,3.0,90,0.00,,---,0.01,0.00,VWS V14.00,2013-08-19 04:01:00,
2013-08-19 00:02:00,56.3,53.4,30.06,NE,46,0.0,3.0,90,0.00,,---,0.01,0.00,VWS V14.00,2013-08-19 04:02:00,
2013-08-19 00:08:00,56.1,53.2,30.05,NE,46,1.0,3.0,90,0.00,,---,0.01,0.00,VWS V14.00,2013-08-19 04:08:00,
2013-08-19 00:13:00,56.1,53.5,30.06,NE,46,0.0,3.0,91,0.00,,---,0.01,0.00,VWS V14.00,2013-08-19 04:13:00,
2013-08-19 00:18:00,55.8,52.9,30.06,NE,46,1.0,3.0,90,0.00,,---,0.01,0.00,VWS V14.00,2013-08-19 04:18:00,
2013-08-19 00:23:00,55.7,53.1,30.05,NE,46,0.0,1.0,91,0.00,,---,0.01,0.00,VWS V14.00,2013-08-19 04:23:00,
2013-08-19 00:28:00,55.6,53.0,30.06,East,83,5.0,5.0,91,0.00,,---,0.01,0.00,VWS V14.00,2013-08-19 04:28:00,
2013-08-19 00:30:00,53.3,51.0,30.23,East,80,0.0,1.0,92,0.00,,---,0.00,0.00,VWS V14.00,2013-08-19 04:30:00,
2013-08-19 00:33:00,56.1,53.5,30.06,East,84,0.0,5.0,91,0.00,,---,0.01,0.00,VWS V14.00,2013-08-19 04:33:00,
2013-08-19 00:38:00,55.6,52.7,30.06,East,84,0.0,5.0,90,0.00,,---,0.01,0.00,VWS V14.00,2013-08-19 04:38:00,
2013-08-19 00:43:00,55.3,52.7,30.06,East,84,0.0,5.0,91,0.00,,---,0.01,0.00,VWS V14.00,2013-08-19 04:43:00,
2013-08-19 00:48:00,55.0,52.1,30.06,East,84,0.0,5.0,90,0.00,,---,0.01,0.00,VWS V14.00,2013-08-19 04:48:00,
2013-08-19 00:53:00,55.0,52.4,30.06,East,84,0.0,0.0,91,0.00,,---,0.01,0.00,VWS V14.00,2013-08-19 04:53:00,
2013-08-19 00:58:00,54.8,52.2,30.05,East,84,0.0,0.0,91,0.00,,---,0.01,0.00,VWS V14.00,2013-08-19 04:58:00,
2013-08-19 01:00:00,52.8,50.5,30.23,East,80,0.0,1.0,92,0.00,,---,0.00,0.00,VWS V14.00,2013-08-19 05:00:00,
2013-08-19 01:03:00,54.5,51.9,30.05,East,84,0.0,0.0,91,0.00,,---,0.01,0.00,VWS V14.00,2013-08-19 05:03:00,
2013-08-19 01:08:00,54.2,51.6,30.05,East,84,0.0,0.0,91,0.00,,---,0.01,0.00,VWS V14.00,2013-08-19 05:08:00,
2013-08-19 01:13:00,54.1,51.5,30.05,East,84,0.0,0.0,91,0.00,,---,0.01,0.00,VWS V14.00,2013-08-19 05:13:00,
2013-08-19 01:18:00,54.1,51.5,30.06,East,84,0.0,0.0,91,0.00,,---,0.01,0.00,VWS V14.00,2013-08-19 05:18:00,
2013-08-19 01:23:00,54.1,51.5,30.06,East,84,0.0,0.0,91,0.00,,---,0.01,0.00,VWS V14.00,2013-08-19 05:23:00,
2013-08-19 01:28:00,54.0,51.4,30.05,East,84,0.0,1.0,91,0.00,,---,0.01,0.00,VWS V14.00,2013-08-19 05:28:00,
2013-08-19 01:30:00,52.8,50.5,30.22,East,80,0.0,1.0,92,0.00,,---,0.00,0.00,VWS V14.00,2013-08-19 05:30:00,
2013-08-19 01:33:00,53.8,51.2,30.05,East,84,0.0,1.0,91,0.00,,---,0.01,0.00,VWS V14.00,2013-08-19 05:33:00,
2013-08-19 01:38:00,53.4,50.8,30.05,East,84,0.0,1.0,91,0.00,,---,0.01,0.00,VWS V14.00,2013-08-19 05:38:00,
2013-08-19 01:43:00,53.4,50.8,30.05,East,84,0.0,1.0,91,0.00,,---,0.01,0.00,VWS V14.00,2013-08-19 05:43:00,
2013-08-19 01:48:00,53.6,51.3,30.05,East,84,0.0,1.0,92,0.00,,---,0.01,0.00,VWS V14.00,2013-08-19 05:48:00,
2013-08-19 01:53:00,53.6,51.3,30.04,East,84,0.0,0.0,92,0.00,,---,0.01,0.00,VWS V14.00,2013-08-19 05:53:00,
2013-08-19 01:58:00,53.6,51.3,30.04,East,84,0.0,1.0,92,0.00,,---,0.01,0.00,VWS V14.00,2013-08-19 05:58:00,
2013-08-19 02:00:00,53.4,51.1,30.22,East,80,2.0,3.0,92,0.00,,---,0.00,0.00,VWS V14.00,2013-08-19 06:00:00,
2013-08-19 02:03:00,53.5,51.2,30.04,East,84,0.0,1.0,92,0.00,,---,0.01,0.00,VWS V14.00,2013-08-19 06:03:00,
2013-08-19 02:08:00,53.7,51.4,30.04,East,84,1.0,1.0,92,0.00,,---,0.01,0.00,VWS V14.00,2013-08-19 06:08:00,
2013-08-19 02:13:00,54.2,51.9,30.04,East,84,0.0,1.0,92,0.00,,---,0.01,0.00,VWS V14.00,2013-08-19 06:13:00,
2013-08-19 02:18:00,54.1,51.8,30.04,East,84,0.0,1.0,92,0.00,,---,0.01,0.00,VWS V14.00,2013-08-19 06:18:00,
2013-08-19 02:23:00,53.9,51.6,30.04,East,84,0.0,1.0,92,0.00,,---,0.01,0.00,VWS V14.00,2013-08-19 06:23:00,
2013-08-19 02:28:00,53.8,51.5,30.04,East,84,0.0,1.0,92,0.00,,---,0.01,0.00,VWS V14.00,2013-08-19 06:28:00,
2013-08-19 02:30:00,53.0,50.7,30.23,East,80,0.0,2.0,92,0.00,,---,0.00,0.00,VWS V14.00,2013-08-19 06:30:00,
2013-08-19 02:33:00,53.6,51.3,30.04,East,84,0.0,1.0,92,0.00,,---,0.01,0.00,VWS V14.00,2013-08-19 06:33:00,
2013-08-19 02:38:00,53.5,51.2,30.04,East,84,0.0,1.0,92,0.00,,---,0.01,0.00,VWS V14.00,2013-08-19 06:38:00,
2013-08-19 02:43:00,53.3,51.0,30.04,East,84,0.0,1.0,92,0.00,,---,0.01,0.00,VWS V14.00,2013-08-19 06:43:00,
2013-08-19 02:48:00,53.1,50.8,30.04,East,84,0.0,1.0,92,0.00,,---,0.01,0.00,VWS V14.00,2013-08-19 06:48:00,
2013-08-19 02:53:00,53.0,50.7,30.04,East,84,0.0,0.0,92,0.00,,---,0.00,0.00,VWS V14.00,2013-08-19 06:53:00,
2013-08-19 02:58:00,52.8,50.5,30.04,East,84,1.0,1.0,92,0.00,,---,0.00,0.00,VWS V14.00,2013-08-19 06:58:00,
2013-08-19 03:00:00,53.2,51.2,30.23,East,80,0.0,2.0,93,0.00,,---,0.00,7.00,VWS V14.00,2013-08-19 07:00:00,
2013-08-19 03:03:00,52.9,50.6,30.04,East,84,0.0,2.0,92,0.00,,---,0.00,0.00,VWS V14.00,2013-08-19 07:03:00,
2013-08-19 03:08:00,52.8,50.5,30.04,East,84,0.0,2.0,92,0.00,,---,0.00,0.00,VWS V14.00,2013-08-19 07:08:00,
2013-08-19 03:13:00,52.7,50.5,30.03,East,84,0.0,2.0,92,0.00,,---,0.00,0.00,VWS V14.00,2013-08-19 07:13:00,
2013-08-19 03:18:00,52.6,50.3,30.03,East,84,0.0,2.0,92,0.00,,---,0.00,0.00,VWS V14.00,2013-08-19 07:18:00,
2013-08-19 03:23:00,52.5,50.2,30.03,East,84,0.0,1.0,92,0.00,,---,0.00,0.00,VWS V14.00,2013-08-19 07:23:00,
2013-08-19 03:28:00,52.6,50.3,30.03,East,84,0.0,1.0,92,0.00,,---,0.00,0.00,VWS V14.00,2013-08-19 07:28:00,
2013-08-19 03:30:00,53.6,51.6,30.23,East,80,0.0,2.0,93,0.00,,---,0.00,16.00,VWS V14.00,2013-08-19 07:30:00,
2013-08-19 03:33:00,52.6,50.3,30.03,East,84,0.0,1.0,92,0.00,,---,0.00,0.00,VWS V14.00,2013-08-19 07:33:00,
2013-08-19 03:38:00,52.7,50.5,30.03,East,84,0.0,1.0,92,0.00,,---,0.00,0.00,VWS V14.00,2013-08-19 07:38:00,
2013-08-19 03:43:00,52.7,50.5,30.03,East,84,0.0,1.0,92,0.00,,---,0.00,0.00,VWS V14.00,2013-08-19 07:43:00,
2013-08-19 03:48:00,52.6,50.3,30.03,East,84,0.0,1.0,92,0.00,,---,0.00,0.00,VWS V14.00,2013-08-19 07:48:00,
2013-08-19 03:53:00,52.7,50.5,30.02,East,84,0.0,0.0,92,0.00,,---,0.00,0.00,VWS V14.00,2013-08-19 07:53:00,
2013-08-19 03:58:00,52.6,50.3,30.02,East,84,0.0,0.0,92,0.00,,---,0.00,0.00,VWS V14.00,2013-08-19 07:58:00,
2013-08-19 04:00:00,54.1,52.1,30.22,East,80,0.0,1.0,93,0.00,,---,0.00,40.00,VWS V14.00,2013-08-19 08:00:00,
2013-08-19 04:03:00,52.4,50.2,30.02,East,84,1.0,1.0,92,0.00,,---,0.00,0.00,VWS V14.00,2013-08-19 08:03:00,
2013-08-19 04:08:00,52.7,50.7,30.02,East,84,0.0,1.0,93,0.00,,---,0.00,0.00,VWS V14.00,2013-08-19 08:08:00,
2013-08-19 04:13:00,52.7,50.5,30.02,East,84,0.0,1.0,92,0.00,,---,0.00,0.00,VWS V14.00,2013-08-19 08:13:00,
2013-08-19 04:18:00,52.7,50.7,30.02,East,84,1.0,1.0,93,0.00,,---,0.00,0.00,VWS V14.00,2013-08-19 08:18:00,
2013-08-19 04:23:00,52.8,50.8,30.02,East,84,0.0,1.0,93,0.00,,---,0.00,0.00,VWS V14.00,2013-08-19 08:23:00,
2013-08-19 04:28:00,52.8,50.8,30.02,East,84,0.0,1.0,93,0.00,,---,0.00,0.00,VWS V14.00,2013-08-19 08:28:00,
2013-08-19 04:30:00,55.2,53.2,30.22,East,80,0.0,1.0,93,0.00,,---,0.00,84.00,VWS V14.00,2013-08-19 08:30:00,
2013-08-19 04:33:00,52.8,50.8,30.02,East,84,0.0,1.0,93,0.00,,---,0.00,0.00,VWS V14.00,2013-08-19 08:33:00,
2013-08-19 04:38:00,52.7,50.7,30.02,East,84,0.0,1.0,93,0.00,,---,0.00,0.00,VWS V14.00,2013-08-19 08:38:00,
2013-08-19 04:43:00,52.6,50.6,30.02,East,84,0.0,1.0,93,0.00,,---,0.00,0.00,VWS V14.00,2013-08-19 08:43:00,
2013-08-19 04:48:00,52.4,50.4,30.02,East,84,0.0,1.0,93,0.00,,---,0.00,0.00,VWS V14.00,2013-08-19 08:48:00,
2013-08-19 04:53:00,52.4,50.4,30.02,East,84,0.0,0.0,93,0.00,,---,0.00,0.00,VWS V14.00,2013-08-19 08:53:00,
2013-08-19 04:59:00,52.3,50.3,30.02,East,84,0.0,0.0,93,0.00,,---,0.00,0.00,VWS V14.00,2013-08-19 08:59:00,
2013-08-19 05:00:00,57.2,55.5,30.23,East,80,0.0,1.0,94,0.00,,---,0.00,144.00,VWS V14.00,2013-08-19 09:00:00,
2013-08-19 05:04:00,52.1,49.8,30.02,East,84,0.0,0.0,92,0.00,,---,0.00,0.00,VWS V14.00,2013-08-19 09:04:00,
2013-08-19 05:09:00,52.2,50.2,30.02,East,84,0.0,0.0,93,0.00,,---,0.00,0.00,VWS V14.00,2013-08-19 09:09:00,
2013-08-19 05:14:00,52.3,50.3,30.02,East,84,0.0,0.0,93,0.00,,---,0.00,0.00,VWS V14.00,2013-08-19 09:14:00,
2013-08-19 05:19:00,52.5,50.5,30.02,East,84,0.0,1.0,93,0.00,,---,0.00,0.00,VWS V14.00,2013-08-19 09:19:00,
2013-08-19 05:24:00,52.6,50.6,30.02,East,84,0.0,0.0,93,0.00,,---,0.00,0.00,VWS V14.00,2013-08-19 09:24:00,
2013-08-19 05:29:00,52.8,50.8,30.02,East,84,0.0,1.0,93,0.00,,---,0.00,0.00,VWS V14.00,2013-08-19 09:29:00,
2013-08-19 05:30:00,59.7,58.0,30.23,East,80,0.0,0.0,94,0.00,,---,0.00,206.00,VWS V14.00,2013-08-19 09:30:00,
2013-08-19 05:34:00,52.8,50.8,30.02,East,84,0.0,1.0,93,0.00,,---,0.00,0.00,VWS V14.00,2013-08-19 09:34:00,
2013-08-19 05:39:00,52.9,50.9,30.02,East,84,0.0,1.0,93,0.00,,---,0.00,0.00,VWS V14.00,2013-08-19 09:39:00,
2013-08-19 05:44:00,52.7,50.7,30.02,East,84,0.0,1.0,93,0.00,,---,0.00,0.00,VWS V14.00,2013-08-19 09:44:00,
2013-08-19 05:49:00,52.6,50.6,30.02,East,84,0.0,2.0,93,0.00,,---,0.00,0.00,VWS V14.00,2013-08-19 09:49:00,
2013-08-19 05:54:00,52.6,50.6,30.02,East,84,0.0,0.0,93,0.00,,---,0.00,0.00,VWS V14.00,2013-08-19 09:54:00,
2013-08-19 05:59:00,52.6,50.6,30.02,East,84,0.0,0.0,93,0.00,,---,0.00,5.00,VWS V14.00,2013-08-19 09:59:00,
2013-08-19 06:00:00,62.2,60.5,30.23,East,80,0.0,1.0,94,0.00,,---,0.00,272.00,VWS V14.00,2013-08-19 10:00:00,
2013-08-19 06:04:00,52.5,50.5,30.02,East,84,0.0,1.0,93,0.00,,---,0.00,0.00,VWS V14.00,2013-08-19 10:04:00,
2013-08-19 06:09:00,52.9,50.9,30.02,East,84,0.0,2.0,93,0.00,,---,0.00,5.00,VWS V14.00,2013-08-19 10:09:00,
2013-08-19 06:14:00,53.0,51.0,30.02,East,84,0.0,2.0,93,0.00,,---,0.00,9.00,VWS V14.00,2013-08-19 10:14:00,
2013-08-19 06:19:00,52.9,50.9,30.02,East,84,0.0,2.0,93,0.00,,---,0.00,12.00,VWS V14.00,2013-08-19 10:19:00,
2013-08-19 06:24:00,52.6,50.6,30.01,East,84,0.0,0.0,93,0.00,,---,0.00,18.00,VWS V14.00,2013-08-19 10:24:00,
2013-08-19 06:29:00,52.4,50.4,30.01,East,84,0.0,0.0,93,0.00,,---,0.00,19.00,VWS V14.00,2013-08-19 10:29:00,
2013-08-19 06:30:00,65.0,60.7,30.23,East,80,0.0,0.0,86,0.01,,---,0.01,306.00,VWS V14.00,2013-08-19 10:30:00,
2013-08-19 06:34:00,52.5,50.5,30.01,East,84,0.0,0.0,93,0.00,,---,0.00,26.00,VWS V14.00,2013-08-19 10:34:00,
2013-08-19 06:39:00,52.6,50.6,30.02,East,84,0.0,0.0,93,0.00,,---,0.00,32.00,VWS V14.00,2013-08-19 10:39:00,
2013-08-19 06:44:00,52.7,50.7,30.02,East,84,0.0,0.0,93,0.00,,---,0.00,33.00,VWS V14.00,2013-08-19 10:44:00,
2013-08-19 06:49:00,52.7,50.7,30.02,East,84,0.0,0.0,93,0.00,,---,0.00,44.00,VWS V14.00,2013-08-19 10:49:00,
2013-08-19 06:54:00,52.9,50.9,30.01,East,84,0.0,0.0,93,0.00,,---,0.00,49.00,VWS V14.00,2013-08-19 10:54:00,
2013-08-19 06:59:00,53.0,51.0,30.02,East,84,0.0,0.0,93,0.00,,---,0.00,54.00,VWS V14.00,2013-08-19 10:59:00,
2013-08-19 07:00:00,68.0,60.2,30.23,NW,324,2.0,3.0,76,0.01,,---,0.01,448.00,VWS V14.00,2013-08-19 11:00:00,
2013-08-19 07:04:00,53.1,51.1,30.02,East,84,0.0,0.0,93,0.00,,---,0.00,60.00,VWS V14.00,2013-08-19 11:04:00,
2013-08-19 07:09:00,53.4,51.7,30.02,East,84,0.0,1.0,94,0.00,,---,0.00,67.00,VWS V14.00,2013-08-19 11:09:00,
2013-08-19 07:14:00,53.5,51.5,30.02,East,84,0.0,1.0,93,0.00,,---,0.00,69.00,VWS V14.00,2013-08-19 11:14:00,
2013-08-19 07:19:00,53.7,51.7,30.02,East,84,0.0,1.0,93,0.00,,---,0.00,90.00,VWS V14.00,2013-08-19 11:19:00,
2013-08-19 07:25:00,54.0,52.0,30.02,East,84,0.0,0.0,93,0.00,,---,0.00,104.00,VWS V14.00,2013-08-19 11:25:00,
2013-08-19 07:30:00,54.5,52.8,30.02,East,84,0.0,0.0,94,0.00,,---,0.00,153.00,VWS V14.00,2013-08-19 11:30:00,
2013-08-19 07:35:00,55.0,53.3,30.02,East,84,0.0,0.0,94,0.00,,---,0.00,146.00,VWS V14.00,2013-08-19 11:35:00,
2013-08-19 07:40:00,55.9,54.2,30.02,East,84,0.0,1.0,94,0.00,,---,0.00,172.00,VWS V14.00,2013-08-19 11:40:00,
2013-08-19 07:45:00,56.6,54.9,30.02,East,84,0.0,1.0,94,0.00,,---,0.00,163.00,VWS V14.00,2013-08-19 11:45:00,
2013-08-19 07:50:00,57.0,55.3,30.02,East,84,0.0,1.0,94,0.00,,---,0.00,148.00,VWS V14.00,2013-08-19 11:50:00,
2013-08-19 07:55:00,57.4,55.7,30.02,East,84,0.0,0.0,94,0.00,,---,0.00,160.00,VWS V14.00,2013-08-19 11:55:00,
2013-08-19 08:00:00,57.8,56.1,30.02,East,84,0.0,0.0,94,0.00,,---,0.00,141.00,VWS V14.00,2013-08-19 12:00:00,
2013-08-19 08:05:00,58.3,56.6,30.02,East,84,0.0,0.0,94,0.00,,---,0.00,91.00,VWS V14.00,2013-08-19 12:05:00,
2013-08-19 08:10:00,58.4,56.7,30.01,East,84,0.0,0.0,94,0.00,,---,0.00,95.00,VWS V14.00,2013-08-19 12:10:00,
2013-08-19 08:15:00,58.5,56.8,30.01,East,84,0.0,0.0,94,0.00,,---,0.00,109.00,VWS V14.00,2013-08-19 12:15:00,
2013-08-19 08:20:00,58.8,57.1,30.01,East,84,0.0,0.0,94,0.00,,---,0.00,204.00,VWS V14.00,2013-08-19 12:20:00,
2013-08-19 08:25:00,59.6,57.9,30.01,East,84,0.0,0.0,94,0.00,,---,0.00,316.00,VWS V14.00,2013-08-19 12:25:00,
2013-08-19 08:30:00,60.2,58.5,30.01,East,84,0.0,0.0,94,0.00,,---,0.00,227.00,VWS V14.00,2013-08-19 12:30:00,
2013-08-19 08:35:00,60.6,58.9,30.01,East,84,0.0,0.0,94,0.00,,---,0.00,283.00,VWS V14.00,2013-08-19 12:35:00,
2013-08-19 08:40:00,61.2,59.5,30.01,East,84,0.0,1.0,94,0.00,,---,0.00,220.00,VWS V14.00,2013-08-19 12:40:00,
2013-08-19 08:45:00,61.5,59.8,30.01,East,84,0.0,1.0,94,0.00,,---,0.00,371.00,VWS V14.00,2013-08-19 12:45:00,
2013-08-19 08:50:00,61.9,60.2,30.01,East,84,0.0,1.0,94,0.00,,---,0.00,348.00,VWS V14.00,2013-08-19 12:50:00,
2013-08-19 08:55:00,62.0,60.0,30.01,East,84,0.0,2.0,93,0.00,,---,0.00,429.00,VWS V14.00,2013-08-19 12:55:00,
2013-08-19 09:00:00,61.9,59.9,30.00,NE,44,0.0,2.0,93,0.00,,---,0.00,367.00,VWS V14.00,2013-08-19 13:00:00,
2013-08-19 09:06:00,63.0,60.6,30.00,NE,44,0.0,2.0,92,0.00,,---,0.00,330.00,VWS V14.00,2013-08-19 13:06:00,
2013-08-19 09:11:00,63.3,60.3,30.01,NW,320,1.0,3.0,90,0.00,,---,0.00,350.00,VWS V14.00,2013-08-19 13:11:00,
2013-08-19 09:16:00,63.6,59.7,30.01,NW,319,1.0,3.0,87,0.00,,---,0.00,271.00,VWS V14.00,2013-08-19 13:16:00,
2013-08-19 09:21:00,64.4,59.8,30.01,NW,320,1.0,3.0,85,0.00,,---,0.00,171.00,VWS V14.00,2013-08-19 13:21:00,
2013-08-19 09:26:00,64.9,59.6,30.01,NW,319,0.0,3.0,83,0.00,,---,0.00,274.00,VWS V14.00,2013-08-19 13:26:00,
2013-08-19 09:30:00,71.0,59.5,30.20,South,189,1.0,4.0,67,0.00,,---,0.01,506.00,VWS V14.00,2013-08-19 13:30:00,
2013-08-19 09:31:00,65.9,59.2,30.01,SSW,208,3.0,4.0,79,0.00,,---,0.00,464.00,VWS V14.00,2013-08-19 13:31:00,
2013-08-19 09:36:00,66.8,58.6,30.01,West,274,0.0,4.0,75,0.00,,---,0.00,496.00,VWS V14.00,2013-08-19 13:36:00,
2013-08-19 09:41:00,67.4,58.1,30.00,South,171,0.0,4.0,72,0.00,,---,0.00,503.00,VWS V14.00,2013-08-19 13:41:00,
2013-08-19 09:46:00,68.4,58.2,30.01,WSW,251,0.0,4.0,70,0.00,,---,0.00,522.00,VWS V14.00,2013-08-19 13:46:00,
2013-08-19 09:51:00,68.9,58.3,30.00,WSW,243,1.0,4.0,69,0.00,,---,0.00,536.00,VWS V14.00,2013-08-19 13:51:00,
2013-08-19 09:56:00,69.1,58.1,30.00,West,263,3.0,4.0,68,0.00,,---,0.00,548.00,VWS V14.00,2013-08-19 13:56:00,
2013-08-19 10:00:00,71.7,59.8,30.18,WNW,299,0.0,5.0,66,0.00,,---,0.01,490.00,VWS V14.00,2013-08-19 14:00:00,
2013-08-19 10:01:00,69.5,58.9,30.00,WSW,240,0.0,4.0,69,0.00,,---,0.00,559.00,VWS V14.00,2013-08-19 14:01:00,
2013-08-19 10:06:00,69.9,58.0,30.00,NW,309,3.0,4.0,66,0.00,,---,0.00,563.00,VWS V14.00,2013-08-19 14:06:00,
2013-08-19 10:11:00,70.2,57.9,30.00,SSW,205,2.0,4.0,65,0.00,,---,0.00,573.00,VWS V14.00,2013-08-19 14:11:00,
2013-08-19 10:16:00,69.9,56.8,30.00,SSW,196,1.0,4.0,63,0.00,,---,0.00,591.00,VWS V14.00,2013-08-19 14:16:00,
2013-08-19 10:21:00,70.1,58.2,29.99,NW,308,0.0,4.0,66,0.00,,---,0.00,599.00,VWS V14.00,2013-08-19 14:21:00,
2013-08-19 10:26:00,70.4,58.5,30.00,NW,305,0.0,2.0,66,0.00,,---,0.00,612.00,VWS V14.00,2013-08-19 14:26:00,
2013-08-19 10:30:00,71.9,56.8,30.18,SSE,154,1.0,6.0,59,0.00,,---,0.01,582.00,VWS V14.00,2013-08-19 14:30:00,
2013-08-19 10:31:00,71.2,59.7,30.00,NNW,338,0.0,2.0,67,0.00,,---,0.00,612.00,VWS V14.00,2013-08-19 14:31:00,
2013-08-19 10:36:00,71.4,58.2,30.00,NW,311,0.0,4.0,63,0.00,,---,0.00,621.00,VWS V14.00,2013-08-19 14:36:00,
2013-08-19 10:41:00,71.0,58.2,30.00,NW,325,0.0,4.0,64,0.00,,---,0.00,636.00,VWS V14.00,2013-08-19 14:41:00,
2013-08-19 10:46:00,71.3,58.1,30.00,WNW,300,2.0,5.0,63,0.00,,---,0.00,649.00,VWS V14.00,2013-08-19 14:46:00,
2013-08-19 10:51:00,71.8,58.5,29.99,NW,320,5.0,5.0,63,0.00,,---,0.00,649.00,VWS V14.00,2013-08-19 14:51:00,
2013-08-19 10:56:00,72.3,58.6,29.99,WNW,298,2.0,4.0,62,0.00,,---,0.00,686.00,VWS V14.00,2013-08-19 14:56:00,
2013-08-19 11:00:00,72.7,55.6,30.17,West,274,3.0,7.0,55,0.00,,---,0.01,585.00,VWS V14.00,2013-08-19 15:00:00,
2013-08-19 11:01:00,72.6,59.3,29.99,WNW,294,1.0,5.0,63,0.00,,---,0.00,696.00,VWS V14.00,2013-08-19 15:01:00,
2013-08-19 11:06:00,72.3,56.2,29.99,NW,309,2.0,6.0,57,0.00,,---,0.00,696.00,VWS V14.00,2013-08-19 15:06:00,
2013-08-19 11:11:00,72.5,57.4,29.99,WSW,252,0.0,6.0,59,0.00,,---,0.00,531.00,VWS V14.00,2013-08-19 15:11:00,
2013-08-19 11:16:00,72.3,55.7,29.99,West,279,3.0,7.0,56,0.00,,---,0.00,698.00,VWS V14.00,2013-08-19 15:16:00,
2013-08-19 11:21:00,72.1,56.5,29.99,WNW,301,3.0,7.0,58,0.00,,---,0.00,603.00,VWS V14.00,2013-08-19 15:21:00,
2013-08-19 11:26:00,72.4,56.8,29.99,NW,317,5.0,6.0,58,0.00,,---,0.00,601.00,VWS V14.00,2013-08-19 15:26:00,
2013-08-19 11:30:00,72.4,57.3,30.16,SSW,203,0.0,6.0,59,0.00,,---,0.01,605.00,VWS V14.00,2013-08-19 15:30:00,
2013-08-19 11:31:00,72.4,57.3,29.99,WNW,302,3.0,10.0,59,0.00,,---,0.00,554.00,VWS V14.00,2013-08-19 15:31:00,
2013-08-19 11:36:00,72.8,57.7,29.99,West,280,2.0,10.0,59,0.00,,---,0.00,701.00,VWS V14.00,2013-08-19 15:36:00,
2013-08-19 11:41:00,73.1,59.3,29.99,WNW,302,2.0,10.0,62,0.00,,---,0.00,631.00,VWS V14.00,2013-08-19 15:41:00,
2013-08-19 11:46:00,73.0,57.8,29.99,West,263,0.0,10.0,59,0.00,,---,0.00,696.00,VWS V14.00,2013-08-19 15:46:00,
2013-08-19 11:51:00,73.1,57.9,29.99,WNW,299,3.0,10.0,59,0.00,,---,0.00,744.00,VWS V14.00,2013-08-19 15:51:00,
2013-08-19 11:56:00,73.0,57.4,29.98,WNW,286,6.0,7.0,58,0.00,,---,0.00,654.00,VWS V14.00,2013-08-19 15:56:00,
2013-08-19 12:00:00,72.5,54.9,30.15,South,174,3.0,6.0,54,0.00,,---,0.01,489.00,VWS V14.00,2013-08-19 16:00:00,
2013-08-19 12:01:00,72.8,59.5,29.98,West,281,1.0,9.0,63,0.00,,---,0.00,788.00,VWS V14.00,2013-08-19 16:01:00,
2013-08-19 12:06:00,72.7,58.0,29.98,WNW,292,5.0,9.0,60,0.00,,---,0.00,765.00,VWS V14.00,2013-08-19 16:06:00,
2013-08-19 12:11:00,72.7,59.4,29.98,WNW,293,3.0,9.0,63,0.00,,---,0.00,802.00,VWS V14.00,2013-08-19 16:11:00,
2013-08-19 12:16:00,73.3,58.6,29.98,SSW,211,2.0,9.0,60,0.00,,---,0.00,814.00,VWS V14.00,2013-08-19 16:16:00,
2013-08-19 12:21:00,73.7,59.9,29.98,SW,234,1.0,9.0,62,0.00,,---,0.00,812.00,VWS V14.00,2013-08-19 16:21:00,
2013-08-19 12:26:00,73.8,59.1,29.98,NW,310,1.0,4.0,60,0.00,,---,0.00,831.00,VWS V14.00,2013-08-19 16:26:00,
2013-08-19 12:30:00,73.0,57.4,30.14,South,174,2.0,5.0,58,0.00,,---,0.01,497.00,VWS V14.00,2013-08-19 16:30:00,
2013-08-19 12:31:00,73.5,59.7,29.98,WSW,246,0.0,7.0,62,0.00,,---,0.00,766.00,VWS V14.00,2013-08-19 16:31:00,
2013-08-19 12:36:00,73.8,60.0,29.98,SW,219,4.0,7.0,62,0.00,,---,0.00,712.00,VWS V14.00,2013-08-19 16:36:00,
2013-08-19 12:41:00,74.0,58.8,29.98,NW,315,5.0,7.0,59,0.00,,---,0.00,802.00,VWS V14.00,2013-08-19 16:41:00,
2013-08-19 12:46:00,73.5,57.8,29.98,NW,322,0.0,7.0,58,0.00,,---,0.00,733.00,VWS V14.00,2013-08-19 16:46:00,
2013-08-19 12:51:00,73.9,60.5,29.97,SW,225,3.0,7.0,63,0.00,,---,0.00,795.00,VWS V14.00,2013-08-19 16:51:00,
2013-08-19 12:56:00,73.9,59.2,29.98,WNW,292,4.0,5.0,60,0.00,,---,0.00,795.00,VWS V14.00,2013-08-19 16:56:00,
2013-08-19 13:00:00,72.7,58.5,30.13,SSW,211,2.0,6.0,61,0.00,,---,0.01,483.00,VWS V14.00,2013-08-19 17:00:00,
2013-08-19 13:01:00,74.0,59.7,29.97,NW,304,3.0,5.0,61,0.00,,---,0.00,802.00,VWS V14.00,2013-08-19 17:01:00,
2013-08-19 13:06:00,74.2,58.5,29.97,NNW,336,6.0,7.0,58,0.00,,---,0.00,800.00,VWS V14.00,2013-08-19 17:06:00,
2013-08-19 13:11:00,74.5,58.8,29.97,NW,325,2.0,7.0,58,0.00,,---,0.00,807.00,VWS V14.00,2013-08-19 17:11:00,
2013-08-19 13:16:00,74.6,58.9,29.97,WNW,298,2.0,7.0,58,0.00,,---,0.00,802.00,VWS V14.00,2013-08-19 17:16:00,
2013-08-19 13:21:00,74.6,59.8,29.97,SSW,207,1.0,7.0,60,0.00,,---,0.00,798.00,VWS V14.00,2013-08-19 17:21:00,
2013-08-19 13:26:00,75.3,61.8,29.97,SW,234,0.0,6.0,63,0.00,,---,0.00,775.00,VWS V14.00,2013-08-19 17:26:00,
2013-08-19 13:30:00,72.3,57.2,30.12,SW,215,0.0,7.0,59,0.00,,---,0.01,353.00,VWS V14.00,2013-08-19 17:30:00,
2013-08-19 13:31:00,75.5,59.7,29.97,WNW,293,3.0,8.0,58,0.00,,---,0.00,694.00,VWS V14.00,2013-08-19 17:31:00,
2013-08-19 13:36:00,75.3,59.5,29.97,West,260,1.0,8.0,58,0.00,,---,0.00,786.00,VWS V14.00,2013-08-19 17:36:00,
2013-08-19 13:41:00,75.7,59.4,29.97,WSW,252,2.0,8.0,57,0.00,,---,0.00,793.00,VWS V14.00,2013-08-19 17:41:00,
2013-08-19 13:46:00,75.9,58.1,29.97,NW,320,3.0,8.0,54,0.00,,---,0.00,744.00,VWS V14.00,2013-08-19 17:46:00,
2013-08-19 13:51:00,75.7,59.4,29.97,West,264,3.0,8.0,57,0.00,,---,0.00,812.00,VWS V14.00,2013-08-19 17:51:00,
2013-08-19 13:56:00,76.1,58.3,29.97,NW,319,9.0,9.0,54,0.00,,---,0.00,631.00,VWS V14.00,2013-08-19 17:56:00,
2013-08-19 14:00:00,72.4,58.2,30.11,SSW,212,1.0,10.0,61,0.00,,---,0.01,371.00,VWS V14.00,2013-08-19 18:00:00,
2013-08-19 14:01:00,75.8,57.5,29.96,NW,320,2.0,9.0,53,0.00,,---,0.00,798.00,VWS V14.00,2013-08-19 18:01:00,
2013-08-19 14:06:00,75.7,58.4,29.96,NW,323,4.0,9.0,55,0.00,,---,0.00,729.00,VWS V14.00,2013-08-19 18:06:00,
2013-08-19 14:11:00,76.5,58.6,29.96,WNW,296,2.0,9.0,54,0.00,,---,0.00,712.00,VWS V14.00,2013-08-19 18:11:00,
2013-08-19 14:16:00,76.2,57.8,29.96,WNW,300,0.0,9.0,53,0.00,,---,0.00,654.00,VWS V14.00,2013-08-19 18:16:00,
2013-08-19 14:21:00,76.2,58.4,29.96,WNW,296,5.0,5.0,54,0.00,,---,0.00,747.00,VWS V14.00,2013-08-19 18:21:00,
2013-08-19 14:26:00,76.2,58.4,29.96,WNW,292,7.0,9.0,54,0.00,,---,0.00,751.00,VWS V14.00,2013-08-19 18:26:00,
2013-08-19 14:30:00,71.4,58.6,30.10,SW,226,0.0,6.0,64,0.00,,---,0.01,214.00,VWS V14.00,2013-08-19 18:30:00,
2013-08-19 14:31:00,75.7,57.9,29.95,North,355,0.0,9.0,54,0.00,,---,0.00,737.00,VWS V14.00,2013-08-19 18:31:00,
2013-08-19 14:36:00,76.0,59.2,29.95,WNW,290,4.0,9.0,56,0.00,,---,0.00,733.00,VWS V14.00,2013-08-19 18:36:00,
2013-08-19 14:41:00,76.2,58.4,29.95,West,262,1.0,9.0,54,0.00,,---,0.00,726.00,VWS V14.00,2013-08-19 18:41:00,
2013-08-19 14:46:00,76.4,59.6,29.95,NW,308,0.0,9.0,56,0.00,,---,0.00,714.00,VWS V14.00,2013-08-19 18:46:00,
2013-08-19 14:51:00,76.7,59.3,29.95,NW,311,6.0,7.0,55,0.00,,---,0.00,708.00,VWS V14.00,2013-08-19 18:51:00,
2013-08-19 14:56:00,76.6,61.2,29.95,West,277,1.0,7.0,59,0.00,,---,0.00,701.00,VWS V14.00,2013-08-19 18:56:00,
2013-08-19 15:00:00,70.2,59.6,30.09,SW,214,0.0,6.0,69,0.00,,---,0.01,132.00,VWS V14.00,2013-08-19 19:00:00,
2013-08-19 15:01:00,77.0,61.1,29.95,WNW,290,3.0,7.0,58,0.00,,---,0.00,689.00,VWS V14.00,2013-08-19 19:01:00,
2013-08-19 15:06:00,76.6,59.2,29.95,SW,228,2.0,7.0,55,0.00,,---,0.00,682.00,VWS V14.00,2013-08-19 19:06:00,
2013-08-19 15:11:00,76.9,60.0,29.94,West,269,0.0,7.0,56,0.00,,---,0.00,673.00,VWS V14.00,2013-08-19 19:11:00,
2013-08-19 15:16:00,77.0,60.1,29.95,WNW,296,1.0,7.0,56,0.00,,---,0.00,668.00,VWS V14.00,2013-08-19 19:16:00,
2013-08-19 15:22:00,77.0,60.1,29.94,NNW,327,3.0,6.0,56,0.00,,---,0.00,656.00,VWS V14.00,2013-08-19 19:22:00,
2013-08-19 15:27:00,77.1,59.7,29.94,West,279,3.0,6.0,55,0.00,,---,0.00,640.00,VWS V14.00,2013-08-19 19:27:00,
2013-08-19 15:30:00,70.0,60.6,30.09,SW,217,0.0,5.0,72,0.00,,---,0.01,127.00,VWS V14.00,2013-08-19 19:30:00,
2013-08-19 15:32:00,77.1,59.2,29.94,West,263,1.0,6.0,54,0.00,,---,0.00,631.00,VWS V14.00,2013-08-19 19:32:00,
2013-08-19 15:37:00,77.4,60.0,29.94,West,268,0.0,6.0,55,0.00,,---,0.00,619.00,VWS V14.00,2013-08-19 19:37:00,
2013-08-19 15:42:00,77.5,59.6,29.94,SW,222,6.0,7.0,54,0.00,,---,0.00,608.00,VWS V14.00,2013-08-19 19:42:00,
2013-08-19 15:47:00,77.0,59.1,29.94,North,5,4.0,7.0,54,0.00,,---,0.00,599.00,VWS V14.00,2013-08-19 19:47:00,
2013-08-19 15:52:00,76.8,59.9,29.94,NW,304,3.0,6.0,56,0.00,,---,0.00,592.00,VWS V14.00,2013-08-19 19:52:00,
2013-08-19 15:57:00,76.7,59.3,29.94,SW,222,3.0,7.0,55,0.00,,---,0.00,578.00,VWS V14.00,2013-08-19 19:57:00,
2013-08-19 16:00:00,69.3,59.9,30.08,SW,228,3.0,4.0,72,0.00,,---,0.01,84.00,VWS V14.00,2013-08-19 20:00:00,
2013-08-19 16:02:00,76.9,60.5,29.94,NW,311,3.0,7.0,57,0.00,,---,0.00,573.00,VWS V14.00,2013-08-19 20:02:00,
2013-08-19 16:07:00,76.9,60.0,29.94,WNW,292,6.0,7.0,56,0.00,,---,0.00,559.00,VWS V14.00,2013-08-19 20:07:00,
2013-08-19 16:12:00,77.0,61.1,29.94,NW,315,0.0,7.0,58,0.00,,---,0.00,548.00,VWS V14.00,2013-08-19 20:12:00,
2013-08-19 16:17:00,77.1,60.2,29.94,WNW,300,5.0,8.0,56,0.00,,---,0.00,534.00,VWS V14.00,2013-08-19 20:17:00,
2013-08-19 16:22:00,76.7,59.3,29.94,NW,311,6.0,6.0,55,0.00,,---,0.00,522.00,VWS V14.00,2013-08-19 20:22:00,
2013-08-19 16:27:00,76.5,60.6,29.93,WNW,298,4.0,6.0,58,0.00,,---,0.00,506.00,VWS V14.00,2013-08-19 20:27:00,
2013-08-19 16:30:00,68.5,58.3,30.08,South,169,0.0,4.0,70,0.00,,---,0.01,46.00,VWS V14.00,2013-08-19 20:30:00,
2013-08-19 16:32:00,76.5,60.2,29.94,NNW,328,3.0,7.0,57,0.00,,---,0.00,492.00,VWS V14.00,2013-08-19 20:32:00,
2013-08-19 16:37:00,76.5,60.2,29.93,NNW,329,0.0,7.0,57,0.00,,---,0.00,478.00,VWS V14.00,2013-08-19 20:37:00,
2013-08-19 16:42:00,77.1,60.7,29.94,NNW,329,0.0,7.0,57,0.00,,---,0.00,466.00,VWS V14.00,2013-08-19 20:42:00,
2013-08-19 16:47:00,77.0,60.1,29.93,SW,226,0.0,7.0,56,0.00,,---,0.00,445.00,VWS V14.00,2013-08-19 20:47:00,
2013-08-19 16:52:00,77.1,60.2,29.93,NW,315,0.0,4.0,56,0.00,,---,0.00,434.00,VWS V14.00,2013-08-19 20:52:00,
2013-08-19 16:57:00,76.7,60.3,29.93,NW,307,0.0,5.0,57,0.00,,---,0.00,422.00,VWS V14.00,2013-08-19 20:57:00,
2013-08-19 17:00:00,67.1,58.9,30.08,South,169,1.0,2.0,75,0.00,,---,0.01,12.00,VWS V14.00,2013-08-19 21:00:00,
2013-08-19 17:02:00,77.0,60.6,29.93,WNW,299,0.0,5.0,57,0.00,,---,0.00,404.00,VWS V14.00,2013-08-19 21:02:00,
2013-08-19 17:07:00,77.0,61.1,29.94,WSW,250,0.0,5.0,58,0.00,,---,0.00,394.00,VWS V14.00,2013-08-19 21:07:00,
2013-08-19 17:12:00,77.1,61.2,29.94,WSW,248,2.0,5.0,58,0.00,,---,0.00,374.00,VWS V14.00,2013-08-19 21:12:00,
2013-08-19 17:17:00,77.1,60.7,29.94,SW,214,0.0,5.0,57,0.00,,---,0.00,360.00,VWS V14.00,2013-08-19 21:17:00,
2013-08-19 17:22:00,77.0,61.6,29.94,SW,214,1.0,1.0,59,0.00,,---,0.00,341.00,VWS V14.00,2013-08-19 21:22:00,
2013-08-19 17:28:00,76.6,60.7,29.94,SSW,204,3.0,4.0,58,0.00,,---,0.00,320.00,VWS V14.00,2013-08-19 21:28:00,
2013-08-19 17:30:00,64.2,58.3,30.08,NNE,28,0.0,3.0,81,0.00,,---,0.01,0.00,VWS V14.00,2013-08-19 21:30:00,
2013-08-19 17:33:00,76.4,60.5,29.94,West,272,0.0,4.0,58,0.00,,---,0.00,308.00,VWS V14.00,2013-08-19 21:33:00,
2013-08-19 17:38:00,76.4,62.0,29.94,SW,218,0.0,4.0,61,0.00,,---,0.00,255.00,VWS V14.00,2013-08-19 21:38:00,
2013-08-19 17:43:00,76.3,61.9,29.94,SW,218,0.0,4.0,61,0.00,,---,0.00,281.00,VWS V14.00,2013-08-19 21:43:00,
2013-08-19 17:48:00,76.4,61.5,29.94,SW,218,0.0,4.0,60,0.00,,---,0.00,120.00,VWS V14.00,2013-08-19 21:48:00,
2013-08-19 17:53:00,76.5,61.1,29.94,WNW,284,0.0,2.0,59,0.00,,---,0.00,109.00,VWS V14.00,2013-08-19 21:53:00,
2013-08-19 17:58:00,76.6,61.7,29.94,WNW,299,0.0,4.0,60,0.00,,---,0.00,84.00,VWS V14.00,2013-08-19 21:58:00,
2013-08-19 18:00:00,61.8,56.6,30.07,NNE,28,0.0,1.0,83,0.00,,---,0.01,0.00,VWS V14.00,2013-08-19 22:00:00,
2013-08-19 18:03:00,76.5,62.1,29.94,WNW,299,0.0,4.0,61,0.00,,---,0.00,84.00,VWS V14.00,2013-08-19 22:03:00,
2013-08-19 18:08:00,76.4,61.5,29.94,WNW,299,0.0,4.0,60,0.00,,---,0.00,81.00,VWS V14.00,2013-08-19 22:08:00,
2013-08-19 18:13:00,76.4,62.4,29.94,WNW,299,0.0,4.0,62,0.00,,---,0.00,76.00,VWS V14.00,2013-08-19 22:13:00,
2013-08-19 18:18:00,76.2,62.2,29.94,WNW,299,0.0,4.0,62,0.00,,---,0.00,72.00,VWS V14.00,2013-08-19 22:18:00,
2013-08-19 18:23:00,76.1,62.6,29.94,WNW,299,0.0,2.0,63,0.00,,---,0.00,69.00,VWS V14.00,2013-08-19 22:23:00,
2013-08-19 18:28:00,75.9,62.9,29.94,WNW,299,0.0,2.0,64,0.00,,---,0.00,63.00,VWS V14.00,2013-08-19 22:28:00,
2013-08-19 18:30:00,60.4,55.9,30.07,NNE,28,0.0,2.0,85,0.00,,---,0.01,0.00,VWS V14.00,2013-08-19 22:30:00,
2013-08-19 18:33:00,75.7,62.2,29.94,WNW,299,0.0,2.0,63,0.00,,---,0.00,62.00,VWS V14.00,2013-08-19 22:33:00,
2013-08-19 18:38:00,75.6,63.5,29.94,WNW,299,0.0,2.0,66,0.00,,---,0.00,56.00,VWS V14.00,2013-08-19 22:38:00,
2013-08-19 18:43:00,75.4,63.7,29.94,WNW,299,0.0,2.0,67,0.00,,---,0.00,56.00,VWS V14.00,2013-08-19 22:43:00,
2013-08-19 18:48:00,75.2,63.9,29.94,WNW,299,0.0,2.0,68,0.00,,---,0.00,54.00,VWS V14.00,2013-08-19 22:48:00,
2013-08-19 18:53:00,74.8,64.4,29.94,WNW,299,0.0,0.0,70,0.00,,---,0.00,49.00,VWS V14.00,2013-08-19 22:53:00,
2013-08-19 18:58:00,74.1,64.9,29.94,WNW,299,0.0,0.0,73,0.00,,---,0.00,47.00,VWS V14.00,2013-08-19 22:58:00,
2013-08-19 19:00:00,61.8,56.6,30.07,NNE,28,0.0,1.0,83,0.00,,---,0.01,0.00,VWS V14.00,2013-08-19 23:00:00,
2013-08-19 19:03:00,73.6,64.4,29.94,WNW,299,0.0,0.0,73,0.00,,---,0.00,42.00,VWS V14.00,2013-08-19 23:03:00,
2013-08-19 19:08:00,73.0,63.8,29.94,WNW,299,0.0,0.0,73,0.00,,---,0.00,35.00,VWS V14.00,2013-08-19 23:08:00,
2013-08-19 19:13:00,72.6,64.2,29.94,WNW,299,0.0,0.0,75,0.00,,---,0.00,32.00,VWS V14.00,2013-08-19 23:13:00,
2013-08-19 19:18:00,72.0,63.7,29.94,WNW,299,0.0,0.0,75,0.00,,---,0.00,26.00,VWS V14.00,2013-08-19 23:18:00,
2013-08-19 19:23:00,71.6,64.0,29.94,WNW,299,0.0,0.0,77,0.00,,---,0.00,21.00,VWS V14.00,2013-08-19 23:23:00,
2013-08-19 19:28:00,71.1,63.9,29.94,WNW,299,0.0,0.0,78,0.00,,---,0.00,16.00,VWS V14.00,2013-08-19 23:28:00,
2013-08-19 19:30:00,57.9,54.1,30.06,NNE,28,0.0,2.0,87,0.00,,---,0.01,0.00,VWS V14.00,2013-08-19 23:30:00,
2013-08-19 19:33:00,70.7,63.9,29.94,WNW,299,0.0,1.0,79,0.00,,---,0.00,11.00,VWS V14.00,2013-08-19 23:33:00,
2013-08-19 19:38:00,70.3,63.5,29.94,WNW,299,0.0,1.0,79,0.00,,---,0.00,7.00,VWS V14.00,2013-08-19 23:38:00,
2013-08-19 19:43:00,69.8,63.4,29.94,WNW,299,0.0,1.0,80,0.00,,---,0.00,5.00,VWS V14.00,2013-08-19 23:43:00,
2013-08-19 19:48:00,69.1,63.0,29.94,WNW,299,0.0,1.0,81,0.00,,---,0.00,0.00,VWS V14.00,2013-08-19 23:48:00,
2013-08-19 19:53:00,68.6,62.9,29.95,WNW,299,0.0,0.0,82,0.00,,---,0.00,0.00,VWS V14.00,2013-08-19 23:53:00,
2013-08-19 19:58:00,67.9,62.2,29.95,WNW,299,0.0,0.0,82,0.00,,---,0.00,0.00,VWS V14.00,2013-08-19 23:58:00,
2013-08-19 20:00:00,56.8,53.6,30.05,NNE,27,0.0,4.0,89,0.00,,---,0.01,0.00,VWS V14.00,2013-08-20 00:00:00,
2013-08-19 20:04:00,67.3,62.0,29.95,WNW,299,0.0,1.0,83,0.00,,---,0.00,0.00,VWS V14.00,2013-08-20 00:04:00,
2013-08-19 20:09:00,67.1,62.1,29.95,WNW,299,0.0,1.0,84,0.00,,---,0.00,0.00,VWS V14.00,2013-08-20 00:09:00,
2013-08-19 20:14:00,66.7,61.7,29.95,East,79,1.0,3.0,84,0.00,,---,0.00,0.00,VWS V14.00,2013-08-20 00:14:00,
2013-08-19 20:19:00,66.5,61.5,29.95,East,79,0.0,3.0,84,0.00,,---,0.00,0.00,VWS V14.00,2013-08-20 00:19:00,
2013-08-19 20:24:00,66.2,61.2,29.95,East,79,0.0,1.0,84,0.00,,---,0.00,0.00,VWS V14.00,2013-08-20 00:24:00,
2013-08-19 20:29:00,65.7,60.7,29.95,East,79,0.0,1.0,84,0.00,,---,0.00,0.00,VWS V14.00,2013-08-20 00:29:00,
2013-08-19 20:30:00,56.5,53.3,30.06,NNE,27,0.0,2.0,89,0.00,,---,0.01,0.00,VWS V14.00,2013-08-20 00:30:00,
2013-08-19 20:34:00,65.4,60.8,29.96,East,79,0.0,2.0,85,0.00,,---,0.00,0.00,VWS V14.00,2013-08-20 00:34:00,
2013-08-19 20:39:00,65.1,60.5,29.96,East,79,0.0,2.0,85,0.00,,---,0.00,0.00,VWS V14.00,2013-08-20 00:39:00,
2013-08-19 20:44:00,64.8,60.5,29.96,East,79,0.0,2.0,86,0.00,,---,0.00,0.00,VWS V14.00,2013-08-20 00:44:00,
2013-08-19 20:49:00,64.4,60.1,29.96,East,79,1.0,2.0,86,0.00,,---,0.00,0.00,VWS V14.00,2013-08-20 00:49:00,
2013-08-19 20:54:00,64.1,59.8,29.96,East,79,1.0,2.0,86,0.00,,---,0.00,0.00,VWS V14.00,2013-08-20 00:54:00,
2013-08-19 20:59:00,63.9,59.6,29.96,East,79,1.0,2.0,86,0.00,,---,0.00,0.00,VWS V14.00,2013-08-20 00:59:00,
2013-08-19 21:00:00,56.5,53.6,30.06,NE,46,0.0,5.0,90,0.00,,---,0.01,0.00,VWS V14.00,2013-08-20 01:00:00,
2013-08-19 21:04:00,63.6,59.3,29.96,East,79,0.0,2.0,86,0.00,,---,0.00,0.00,VWS V14.00,2013-08-20 01:04:00,
2013-08-19 21:09:00,63.4,59.5,29.97,East,79,0.0,3.0,87,0.00,,---,0.00,0.00,VWS V14.00,2013-08-20 01:09:00,
2013-08-19 21:14:00,63.2,59.3,29.97,East,79,0.0,3.0,87,0.00,,---,0.00,0.00,VWS V14.00,2013-08-20 01:14:00,
2013-08-19 21:19:00,62.9,59.0,29.96,East,79,0.0,3.0,87,0.00,,---,0.00,0.00,VWS V14.00,2013-08-20 01:19:00,
2013-08-19 21:24:00,62.7,58.8,29.97,East,79,0.0,1.0,87,0.00,,---,0.00,0.00,VWS V14.00,2013-08-20 01:24:00,
2013-08-19 21:29:00,62.5,58.6,29.97,East,79,1.0,2.0,87,0.00,,---,0.00,0.00,VWS V14.00,2013-08-20 01:29:00,
2013-08-19 21:30:00,55.8,53.2,30.05,NE,46,0.0,3.0,91,0.00,,---,0.01,0.00,VWS V14.00,2013-08-20 01:30:00,
2013-08-19 21:34:00,62.3,58.4,29.97,East,79,0.0,2.0,87,0.00,,---,0.00,0.00,VWS V14.00,2013-08-20 01:34:00,
2013-08-19 21:39:00,62.1,58.2,29.97,East,79,0.0,2.0,87,0.00,,---,0.00,0.00,VWS V14.00,2013-08-20 01:39:00,
2013-08-19 21:44:00,62.0,58.1,29.97,East,79,0.0,2.0,87,0.00,,---,0.00,0.00,VWS V14.00,2013-08-20 01:44:00,
2013-08-19 21:49:00,61.8,57.9,29.97,East,79,0.0,2.0,87,0.00,,---,0.00,0.00,VWS V14.00,2013-08-20 01:49:00,
2013-08-19 21:54:00,61.6,57.7,29.96,East,79,0.0,1.0,87,0.00,,---,0.00,0.00,VWS V14.00,2013-08-20 01:54:00,
2013-08-19 21:59:00,61.5,57.9,29.97,East,79,0.0,1.0,88,0.00,,---,0.00,0.00,VWS V14.00,2013-08-20 01:59:00,
2013-08-19 22:00:00,55.0,52.4,30.06,East,84,0.0,5.0,91,0.00,,---,0.01,0.00,VWS V14.00,2013-08-20 02:00:00,
2013-08-19 22:04:00,61.3,57.7,29.97,East,79,0.0,1.0,88,0.00,,---,0.00,0.00,VWS V14.00,2013-08-20 02:04:00,
2013-08-19 22:09:00,61.1,57.5,29.97,East,79,0.0,1.0,88,0.00,,---,0.00,0.00,VWS V14.00,2013-08-20 02:09:00,
2013-08-19 22:14:00,61.0,57.4,29.97,East,79,0.0,1.0,88,0.00,,---,0.00,0.00,VWS V14.00,2013-08-20 02:14:00,
2013-08-19 22:19:00,60.8,57.2,29.97,East,79,0.0,1.0,88,0.00,,---,0.00,0.00,VWS V14.00,2013-08-20 02:19:00,
2013-08-19 22:24:00,60.6,57.0,29.97,East,79,0.0,1.0,88,0.00,,---,0.00,0.00,VWS V14.00,2013-08-20 02:24:00,
2013-08-19 22:30:00,60.5,56.9,29.97,East,79,0.0,1.0,88,0.00,,---,0.00,0.00,VWS V14.00,2013-08-20 02:30:00,
2013-08-19 22:35:00,60.5,57.2,29.97,East,79,0.0,1.0,89,0.00,,---,0.00,0.00,VWS V14.00,2013-08-20 02:35:00,
2013-08-19 22:40:00,60.4,57.2,29.97,East,79,0.0,1.0,89,0.00,,---,0.00,0.00,VWS V14.00,2013-08-20 02:40:00,
2013-08-19 22:45:00,60.1,56.8,29.97,East,79,0.0,1.0,89,0.00,,---,0.00,0.00,VWS V14.00,2013-08-20 02:45:00,
2013-08-19 22:50:00,60.0,56.8,29.97,East,79,0.0,1.0,89,0.00,,---,0.00,0.00,VWS V14.00,2013-08-20 02:50:00,
2013-08-19 22:55:00,59.9,56.7,29.97,East,79,0.0,1.0,89,0.00,,---,0.00,0.00,VWS V14.00,2013-08-20 02:55:00,
2013-08-19 23:00:00,59.9,56.7,29.97,East,79,1.0,2.0,89,0.00,,---,0.00,0.00,VWS V14.00,2013-08-20 03:00:00,
2013-08-19 23:05:00,59.7,56.5,29.96,East,79,0.0,2.0,89,0.00,,---,0.00,0.00,VWS V14.00,2013-08-20 03:05:00,
2013-08-19 23:10:00,59.6,56.4,29.97,East,79,0.0,2.0,89,0.00,,---,0.00,0.00,VWS V14.00,2013-08-20 03:10:00,
2013-08-19 23:15:00,59.5,56.3,29.97,East,79,0.0,2.0,89,0.00,,---,0.00,0.00,VWS V14.00,2013-08-20 03:15:00,
2013-08-19 23:20:00,59.4,56.5,29.97,East,79,0.0,2.0,90,0.00,,---,0.00,0.00,VWS V14.00,2013-08-20 03:20:00,
2013-08-19 23:25:00,59.2,56.3,29.97,East,79,0.0,0.0,90,0.00,,---,0.00,0.00,VWS V14.00,2013-08-20 03:25:00,
2013-08-19 23:30:00,59.1,56.2,29.97,East,79,0.0,2.0,90,0.00,,---,0.00,0.00,VWS V14.00,2013-08-20 03:30:00,
2013-08-19 23:35:00,59.1,56.2,29.97,East,79,0.0,2.0,90,0.00,,---,0.00,0.00,VWS V14.00,2013-08-20 03:35:00,
2013-08-19 23:40:00,59.1,56.2,29.97,East,79,0.0,2.0,90,0.00,,---,0.00,0.00,VWS V14.00,2013-08-20 03:40:00,
2013-08-19 23:45:00,59.1,56.2,29.97,East,79,1.0,2.0,90,0.00,,---,0.00,0.00,VWS V14.00,2013-08-20 03:45:00,
2013-08-19 23:50:00,59.0,56.1,29.97,East,79,0.0,2.0,90,0.00,,---,0.00,0.00,VWS V14.00,2013-08-20 03:50:00,
2013-08-19 23:55:00,59.1,56.5,29.97,East,79,0.0,2.0,91,0.00,,---,0.00,0.00,VWS V14.00,2013-08-20 03:55:00,